sensor_id;sensor_type;location;lat;lon;timestamp;P1;durP1;ratioP1;P2;durP2;ratioP2
72379;SDS011;60354;47.798;12.472;2023-02-01T00:00:22;0.60;;;0.60;;
72379;SDS011;60354;47.798;12.472;2023-02-01T00:02:48;1.30;;;0.50;;
72379;SDS011;60354;47.798;12.472;2023-02-01T00:05:13;0.75;;;0.43;;
72379;SDS011;60354;47.798;12.472;2023-02-01T00:07:39;0.95;;;0.60;;
72379;SDS011;60354;47.798;12.472;2023-02-01T00:10:05;1.50;;;0.50;;
72379;SDS011;60354;47.798;12.472;2023-02-01T00:12:31;0.47;;;0.30;;
72379;SDS011;60354;47.798;12.472;2023-02-01T00:14:58;0.47;;;0.40;;
72379;SDS011;60354;47.798;12.472;2023-02-01T00:17:23;1.70;;;0.50;;
72379;SDS011;60354;47.798;12.472;2023-02-01T00:19:49;1.55;;;0.60;;
72379;SDS011;60354;47.798;12.472;2023-02-01T00:22:15;1.33;;;0.50;;
72379;SDS011;60354;47.798;12.472;2023-02-01T00:24:40;0.60;;;0.50;;
72379;SDS011;60354;47.798;12.472;2023-02-01T00:27:06;0.82;;;0.50;;
72379;SDS011;60354;47.798;12.472;2023-02-01T00:29:31;3.15;;;0.50;;
72379;SDS011;60354;47.798;12.472;2023-02-01T00:31:57;0.93;;;0.57;;
72379;SDS011;60354;47.798;12.472;2023-02-01T00:34:22;0.30;;;0.30;;
72379;SDS011;60354;47.798;12.472;2023-02-01T00:36:49;0.77;;;0.40;;
72379;SDS011;60354;47.798;12.472;2023-02-01T00:39:16;0.80;;;0.47;;
72379;SDS011;60354;47.798;12.472;2023-02-01T00:41:41;0.40;;;0.40;;
72379;SDS011;60354;47.798;12.472;2023-02-01T00:44:07;0.57;;;0.50;;
72379;SDS011;60354;47.798;12.472;2023-02-01T00:46:33;0.95;;;0.43;;
72379;SDS011;60354;47.798;12.472;2023-02-01T00:49:00;0.85;;;0.70;;
72379;SDS011;60354;47.798;12.472;2023-02-01T00:51:26;1.70;;;1.20;;
72379;SDS011;60354;47.798;12.472;2023-02-01T00:53:54;3.28;;;1.10;;
72379;SDS011;60354;47.798;12.472;2023-02-01T00:56:20;2.70;;;1.05;;
72379;SDS011;60354;47.798;12.472;2023-02-01T00:58:46;1.35;;;1.00;;
72379;SDS011;60354;47.798;12.472;2023-02-01T01:01:16;1.00;;;0.80;;
72379;SDS011;60354;47.798;12.472;2023-02-01T01:03:47;1.08;;;0.88;;
72379;SDS011;60354;47.798;12.472;2023-02-01T01:06:20;1.55;;;0.80;;
72379;SDS011;60354;47.798;12.472;2023-02-01T01:08:53;2.88;;;0.98;;
72379;SDS011;60354;47.798;12.472;2023-02-01T01:11:22;2.00;;;0.95;;
72379;SDS011;60354;47.798;12.472;2023-02-01T01:13:50;2.03;;;1.10;;
72379;SDS011;60354;47.798;12.472;2023-02-01T01:16:18;2.03;;;0.90;;
72379;SDS011;60354;47.798;12.472;2023-02-01T01:18:44;1.95;;;0.90;;
72379;SDS011;60354;47.798;12.472;2023-02-01T01:21:11;1.85;;;0.98;;
72379;SDS011;60354;47.798;12.472;2023-02-01T01:23:38;2.15;;;1.33;;
72379;SDS011;60354;47.798;12.472;2023-02-01T01:26:07;2.30;;;1.30;;
72379;SDS011;60354;47.798;12.472;2023-02-01T01:28:34;2.55;;;1.33;;
72379;SDS011;60354;47.798;12.472;2023-02-01T01:31:00;1.63;;;1.20;;
72379;SDS011;60354;47.798;12.472;2023-02-01T01:33:26;2.60;;;1.45;;
72379;SDS011;60354;47.798;12.472;2023-02-01T01:35:52;3.22;;;1.27;;
72379;SDS011;60354;47.798;12.472;2023-02-01T01:38:17;5.22;;;1.48;;
72379;SDS011;60354;47.798;12.472;2023-02-01T01:40:46;2.22;;;1.60;;
72379;SDS011;60354;47.798;12.472;2023-02-01T01:43:17;2.17;;;1.40;;
72379;SDS011;60354;47.798;12.472;2023-02-01T01:45:48;4.35;;;1.52;;
72379;SDS011;60354;47.798;12.472;2023-02-01T01:50:48;2.80;;;1.50;;
72379;SDS011;60354;47.798;12.472;2023-02-01T01:53:19;2.17;;;1.30;;
72379;SDS011;60354;47.798;12.472;2023-02-01T01:55:51;3.10;;;1.30;;
72379;SDS011;60354;47.798;12.472;2023-02-01T01:58:21;1.00;;;0.70;;
72379;SDS011;60354;47.798;12.472;2023-02-01T02:00:50;1.52;;;0.70;;
72379;SDS011;60354;47.798;12.472;2023-02-01T02:05:59;1.00;;;0.70;;
72379;SDS011;60354;47.798;12.472;2023-02-01T02:08:27;1.67;;;0.70;;
72379;SDS011;60354;47.798;12.472;2023-02-01T02:10:53;1.52;;;0.90;;
72379;SDS011;60354;47.798;12.472;2023-02-01T02:13:25;0.73;;;0.63;;
72379;SDS011;60354;47.798;12.472;2023-02-01T02:18:45;2.72;;;0.85;;
72379;SDS011;60354;47.798;12.472;2023-02-01T02:24:10;1.48;;;0.80;;
72379;SDS011;60354;47.798;12.472;2023-02-01T02:27:44;3.40;;;1.20;;
72379;SDS011;60354;47.798;12.472;2023-02-01T02:40:50;2.03;;;1.20;;
72379;SDS011;60354;47.798;12.472;2023-02-01T02:43:59;2.38;;;1.25;;
72379;SDS011;60354;47.798;12.472;2023-02-01T02:46:48;2.15;;;1.23;;
72379;SDS011;60354;47.798;12.472;2023-02-01T02:49:35;3.33;;;1.10;;
72379;SDS011;60354;47.798;12.472;2023-02-01T02:52:30;3.17;;;1.20;;
72379;SDS011;60354;47.798;12.472;2023-02-01T02:55:17;2.60;;;1.08;;
72379;SDS011;60354;47.798;12.472;2023-02-01T02:57:44;4.20;;;1.50;;
72379;SDS011;60354;47.798;12.472;2023-02-01T03:00:30;1.83;;;1.20;;
72379;SDS011;60354;47.798;12.472;2023-02-01T03:03:17;2.47;;;1.20;;
72379;SDS011;60354;47.798;12.472;2023-02-01T03:06:01;3.28;;;1.40;;
72379;SDS011;60354;47.798;12.472;2023-02-01T03:08:30;1.98;;;1.30;;
72379;SDS011;60354;47.798;12.472;2023-02-01T03:10:58;5.15;;;1.40;;
72379;SDS011;60354;47.798;12.472;2023-02-01T03:13:36;2.03;;;1.30;;
72379;SDS011;60354;47.798;12.472;2023-02-01T03:22:07;3.15;;;1.20;;
72379;SDS011;60354;47.798;12.472;2023-02-01T03:24:40;3.38;;;1.58;;
72379;SDS011;60354;47.798;12.472;2023-02-01T03:27:31;2.13;;;1.27;;
72379;SDS011;60354;47.798;12.472;2023-02-01T03:30:40;2.45;;;1.40;;
72379;SDS011;60354;47.798;12.472;2023-02-01T03:32:56;2.08;;;1.25;;
72379;SDS011;60354;47.798;12.472;2023-02-01T03:37:56;2.55;;;1.40;;
72379;SDS011;60354;47.798;12.472;2023-02-01T03:40:39;3.80;;;1.63;;
72379;SDS011;60354;47.798;12.472;2023-02-01T03:43:08;4.30;;;1.60;;
72379;SDS011;60354;47.798;12.472;2023-02-01T03:45:40;4.15;;;1.88;;
72379;SDS011;60354;47.798;12.472;2023-02-01T03:48:09;3.92;;;1.70;;
72379;SDS011;60354;47.798;12.472;2023-02-01T03:50:38;3.53;;;1.50;;
72379;SDS011;60354;47.798;12.472;2023-02-01T03:53:09;2.75;;;1.70;;
72379;SDS011;60354;47.798;12.472;2023-02-01T03:55:43;3.67;;;1.70;;
72379;SDS011;60354;47.798;12.472;2023-02-01T03:58:10;2.75;;;1.70;;
72379;SDS011;60354;47.798;12.472;2023-02-01T04:00:38;3.30;;;1.77;;
72379;SDS011;60354;47.798;12.472;2023-02-01T04:03:05;3.97;;;1.63;;
72379;SDS011;60354;47.798;12.472;2023-02-01T04:05:32;2.72;;;1.70;;
72379;SDS011;60354;47.798;12.472;2023-02-01T04:08:02;2.92;;;1.58;;
72379;SDS011;60354;47.798;12.472;2023-02-01T04:10:30;3.13;;;1.63;;
72379;SDS011;60354;47.798;12.472;2023-02-01T04:12:55;3.45;;;1.70;;
72379;SDS011;60354;47.798;12.472;2023-02-01T04:15:21;3.00;;;1.60;;
72379;SDS011;60354;47.798;12.472;2023-02-01T04:17:46;3.08;;;1.60;;
72379;SDS011;60354;47.798;12.472;2023-02-01T04:20:12;4.50;;;1.63;;
72379;SDS011;60354;47.798;12.472;2023-02-01T04:22:37;2.92;;;1.70;;
72379;SDS011;60354;47.798;12.472;2023-02-01T04:25:03;1.92;;;1.35;;
72379;SDS011;60354;47.798;12.472;2023-02-01T04:27:30;4.13;;;1.40;;
72379;SDS011;60354;47.798;12.472;2023-02-01T04:29:56;4.43;;;1.80;;
72379;SDS011;60354;47.798;12.472;2023-02-01T04:32:22;1.80;;;1.20;;
72379;SDS011;60354;47.798;12.472;2023-02-01T04:34:47;3.25;;;1.50;;
72379;SDS011;60354;47.798;12.472;2023-02-01T04:37:13;4.95;;;1.38;;
72379;SDS011;60354;47.798;12.472;2023-02-01T04:39:38;2.25;;;1.50;;
72379;SDS011;60354;47.798;12.472;2023-02-01T04:42:04;2.08;;;1.42;;
72379;SDS011;60354;47.798;12.472;2023-02-01T04:44:29;2.75;;;1.40;;
72379;SDS011;60354;47.798;12.472;2023-02-01T04:46:55;3.63;;;1.40;;
72379;SDS011;60354;47.798;12.472;2023-02-01T04:49:20;2.33;;;1.20;;
72379;SDS011;60354;47.798;12.472;2023-02-01T04:51:50;3.47;;;1.30;;
72379;SDS011;60354;47.798;12.472;2023-02-01T04:54:16;2.40;;;1.40;;
72379;SDS011;60354;47.798;12.472;2023-02-01T04:56:42;3.40;;;1.48;;
72379;SDS011;60354;47.798;12.472;2023-02-01T04:59:07;3.75;;;1.85;;
72379;SDS011;60354;47.798;12.472;2023-02-01T05:01:36;2.20;;;1.40;;
72379;SDS011;60354;47.798;12.472;2023-02-01T05:04:02;1.35;;;1.05;;
72379;SDS011;60354;47.798;12.472;2023-02-01T05:06:28;1.75;;;1.20;;
72379;SDS011;60354;47.798;12.472;2023-02-01T05:08:53;1.20;;;1.00;;
72379;SDS011;60354;47.798;12.472;2023-02-01T05:11:19;2.92;;;1.15;;
72379;SDS011;60354;47.798;12.472;2023-02-01T05:14:03;2.97;;;1.30;;
72379;SDS011;60354;47.798;12.472;2023-02-01T05:16:28;2.58;;;1.30;;
72379;SDS011;60354;47.798;12.472;2023-02-01T05:18:55;2.80;;;1.40;;
72379;SDS011;60354;47.798;12.472;2023-02-01T05:21:20;2.15;;;1.30;;
72379;SDS011;60354;47.798;12.472;2023-02-01T05:23:46;2.03;;;1.20;;
72379;SDS011;60354;47.798;12.472;2023-02-01T05:26:31;2.05;;;1.10;;
72379;SDS011;60354;47.798;12.472;2023-02-01T05:28:57;1.83;;;1.00;;
72379;SDS011;60354;47.798;12.472;2023-02-01T05:31:23;1.23;;;1.00;;
72379;SDS011;60354;47.798;12.472;2023-02-01T05:33:48;2.47;;;1.20;;
72379;SDS011;60354;47.798;12.472;2023-02-01T05:36:14;2.03;;;1.08;;
72379;SDS011;60354;47.798;12.472;2023-02-01T05:38:40;1.83;;;1.00;;
72379;SDS011;60354;47.798;12.472;2023-02-01T05:41:05;1.02;;;0.88;;
72379;SDS011;60354;47.798;12.472;2023-02-01T05:43:31;1.70;;;1.05;;
72379;SDS011;60354;47.798;12.472;2023-02-01T05:45:57;1.85;;;0.80;;
72379;SDS011;60354;47.798;12.472;2023-02-01T05:48:22;2.03;;;0.85;;
72379;SDS011;60354;47.798;12.472;2023-02-01T05:50:48;1.00;;;0.70;;
72379;SDS011;60354;47.798;12.472;2023-02-01T05:53:13;0.75;;;0.70;;
72379;SDS011;60354;47.798;12.472;2023-02-01T05:55:39;1.27;;;0.65;;
72379;SDS011;60354;47.798;12.472;2023-02-01T05:58:05;1.45;;;0.95;;
72379;SDS011;60354;47.798;12.472;2023-02-01T06:00:31;1.40;;;0.90;;
72379;SDS011;60354;47.798;12.472;2023-02-01T06:02:56;2.15;;;0.80;;
72379;SDS011;60354;47.798;12.472;2023-02-01T06:05:22;1.73;;;0.93;;
72379;SDS011;60354;47.798;12.472;2023-02-01T06:07:48;1.20;;;0.98;;
72379;SDS011;60354;47.798;12.472;2023-02-01T06:10:15;1.48;;;0.85;;
72379;SDS011;60354;47.798;12.472;2023-02-01T06:12:41;1.05;;;0.95;;
72379;SDS011;60354;47.798;12.472;2023-02-01T06:15:07;1.38;;;0.85;;
72379;SDS011;60354;47.798;12.472;2023-02-01T06:17:33;0.80;;;0.80;;
72379;SDS011;60354;47.798;12.472;2023-02-01T06:19:58;4.90;;;1.10;;
72379;SDS011;60354;47.798;12.472;2023-02-01T06:22:24;2.10;;;1.08;;
72379;SDS011;60354;47.798;12.472;2023-02-01T06:24:49;2.25;;;1.00;;
72379;SDS011;60354;47.798;12.472;2023-02-01T06:27:15;1.55;;;0.90;;
72379;SDS011;60354;47.798;12.472;2023-02-01T06:29:40;2.08;;;1.10;;
72379;SDS011;60354;47.798;12.472;2023-02-01T06:32:06;2.10;;;1.00;;
72379;SDS011;60354;47.798;12.472;2023-02-01T06:34:31;2.33;;;1.15;;
72379;SDS011;60354;47.798;12.472;2023-02-01T06:36:57;1.88;;;1.02;;
72379;SDS011;60354;47.798;12.472;2023-02-01T06:39:22;2.83;;;1.23;;
72379;SDS011;60354;47.798;12.472;2023-02-01T06:41:48;1.83;;;1.10;;
72379;SDS011;60354;47.798;12.472;2023-02-01T06:44:14;2.28;;;1.20;;
72379;SDS011;60354;47.798;12.472;2023-02-01T06:46:40;1.60;;;1.00;;
72379;SDS011;60354;47.798;12.472;2023-02-01T06:49:05;2.20;;;1.30;;
72379;SDS011;60354;47.798;12.472;2023-02-01T06:51:31;1.52;;;1.08;;
72379;SDS011;60354;47.798;12.472;2023-02-01T06:53:57;3.45;;;1.20;;
72379;SDS011;60354;47.798;12.472;2023-02-01T06:56:23;1.83;;;1.00;;
72379;SDS011;60354;47.798;12.472;2023-02-01T06:58:49;1.65;;;1.10;;
72379;SDS011;60354;47.798;12.472;2023-02-01T07:01:15;1.23;;;0.80;;
72379;SDS011;60354;47.798;12.472;2023-02-01T07:03:41;2.00;;;1.05;;
72379;SDS011;60354;47.798;12.472;2023-02-01T07:06:07;1.63;;;1.00;;
72379;SDS011;60354;47.798;12.472;2023-02-01T07:08:34;2.55;;;1.10;;
72379;SDS011;60354;47.798;12.472;2023-02-01T07:11:02;1.70;;;1.08;;
72379;SDS011;60354;47.798;12.472;2023-02-01T07:13:35;1.55;;;1.20;;
72379;SDS011;60354;47.798;12.472;2023-02-01T07:16:01;2.25;;;1.10;;
72379;SDS011;60354;47.798;12.472;2023-02-01T07:18:28;2.00;;;1.10;;
72379;SDS011;60354;47.798;12.472;2023-02-01T07:20:54;1.80;;;1.10;;
72379;SDS011;60354;47.798;12.472;2023-02-01T07:23:20;1.50;;;1.20;;
72379;SDS011;60354;47.798;12.472;2023-02-01T07:25:46;1.83;;;1.20;;
72379;SDS011;60354;47.798;12.472;2023-02-01T07:28:12;2.08;;;1.30;;
72379;SDS011;60354;47.798;12.472;2023-02-01T07:30:38;2.35;;;1.20;;
72379;SDS011;60354;47.798;12.472;2023-02-01T07:33:03;1.90;;;1.23;;
72379;SDS011;60354;47.798;12.472;2023-02-01T07:35:29;4.03;;;1.40;;
72379;SDS011;60354;47.798;12.472;2023-02-01T07:37:54;3.17;;;1.33;;
72379;SDS011;60354;47.798;12.472;2023-02-01T07:40:22;2.42;;;1.58;;
72379;SDS011;60354;47.798;12.472;2023-02-01T07:42:54;2.70;;;1.40;;
72379;SDS011;60354;47.798;12.472;2023-02-01T07:45:21;5.50;;;3.08;;
72379;SDS011;60354;47.798;12.472;2023-02-01T07:47:47;2.25;;;1.35;;
72379;SDS011;60354;47.798;12.472;2023-02-01T07:50:13;2.22;;;1.30;;
72379;SDS011;60354;47.798;12.472;2023-02-01T07:52:38;2.30;;;1.55;;
72379;SDS011;60354;47.798;12.472;2023-02-01T07:55:05;2.70;;;1.40;;
72379;SDS011;60354;47.798;12.472;2023-02-01T07:57:31;4.95;;;2.50;;
72379;SDS011;60354;47.798;12.472;2023-02-01T07:59:56;3.00;;;1.70;;
72379;SDS011;60354;47.798;12.472;2023-02-01T08:05:06;1.75;;;1.10;;
72379;SDS011;60354;47.798;12.472;2023-02-01T08:07:32;2.13;;;1.23;;
72379;SDS011;60354;47.798;12.472;2023-02-01T08:09:57;1.60;;;1.15;;
72379;SDS011;60354;47.798;12.472;2023-02-01T08:12:23;1.52;;;0.95;;
72379;SDS011;60354;47.798;12.472;2023-02-01T08:14:48;1.30;;;1.02;;
72379;SDS011;60354;47.798;12.472;2023-02-01T08:17:13;1.92;;;1.00;;
72379;SDS011;60354;47.798;12.472;2023-02-01T08:19:39;2.10;;;1.13;;
72379;SDS011;60354;47.798;12.472;2023-02-01T08:22:04;2.42;;;1.13;;
72379;SDS011;60354;47.798;12.472;2023-02-01T08:24:32;1.35;;;1.00;;
72379;SDS011;60354;47.798;12.472;2023-02-01T08:26:59;1.77;;;1.10;;
72379;SDS011;60354;47.798;12.472;2023-02-01T08:29:26;3.20;;;1.10;;
72379;SDS011;60354;47.798;12.472;2023-02-01T08:31:51;2.08;;;1.42;;
72379;SDS011;60354;47.798;12.472;2023-02-01T08:34:16;1.30;;;1.10;;
72379;SDS011;60354;47.798;12.472;2023-02-01T08:36:42;2.10;;;1.30;;
72379;SDS011;60354;47.798;12.472;2023-02-01T08:39:08;1.65;;;1.00;;
72379;SDS011;60354;47.798;12.472;2023-02-01T08:41:35;2.25;;;1.02;;
72379;SDS011;60354;47.798;12.472;2023-02-01T08:44:00;1.40;;;1.00;;
72379;SDS011;60354;47.798;12.472;2023-02-01T08:46:26;1.20;;;0.73;;
72379;SDS011;60354;47.798;12.472;2023-02-01T08:48:52;3.33;;;1.10;;
72379;SDS011;60354;47.798;12.472;2023-02-01T08:51:18;1.67;;;0.90;;
72379;SDS011;60354;47.798;12.472;2023-02-01T08:53:45;1.83;;;1.00;;
72379;SDS011;60354;47.798;12.472;2023-02-01T08:56:12;1.13;;;0.98;;
72379;SDS011;60354;47.798;12.472;2023-02-01T08:58:40;1.73;;;1.00;;
72379;SDS011;60354;47.798;12.472;2023-02-01T09:01:07;3.65;;;1.30;;
72379;SDS011;60354;47.798;12.472;2023-02-01T09:03:34;6.78;;;2.58;;
72379;SDS011;60354;47.798;12.472;2023-02-01T09:06:03;5.93;;;1.80;;
72379;SDS011;60354;47.798;12.472;2023-02-01T09:08:30;3.47;;;1.40;;
72379;SDS011;60354;47.798;12.472;2023-02-01T09:11:03;3.80;;;1.77;;
72379;SDS011;60354;47.798;12.472;2023-02-01T09:13:32;2.03;;;1.13;;
72379;SDS011;60354;47.798;12.472;2023-02-01T09:16:00;1.13;;;0.90;;
72379;SDS011;60354;47.798;12.472;2023-02-01T09:18:26;1.80;;;0.98;;
72379;SDS011;60354;47.798;12.472;2023-02-01T09:20:51;1.80;;;1.00;;
72379;SDS011;60354;47.798;12.472;2023-02-01T09:23:17;0.82;;;0.73;;
72379;SDS011;60354;47.798;12.472;2023-02-01T09:25:45;1.42;;;0.98;;
72379;SDS011;60354;47.798;12.472;2023-02-01T09:28:11;1.20;;;1.00;;
72379;SDS011;60354;47.798;12.472;2023-02-01T09:30:37;1.17;;;0.90;;
72379;SDS011;60354;47.798;12.472;2023-02-01T09:33:02;1.45;;;0.95;;
72379;SDS011;60354;47.798;12.472;2023-02-01T09:35:28;1.63;;;1.02;;
72379;SDS011;60354;47.798;12.472;2023-02-01T09:37:54;2.20;;;1.10;;
72379;SDS011;60354;47.798;12.472;2023-02-01T09:40:20;1.50;;;0.95;;
72379;SDS011;60354;47.798;12.472;2023-02-01T09:45:40;2.00;;;0.90;;
72379;SDS011;60354;47.798;12.472;2023-02-01T09:48:17;2.40;;;1.00;;
72379;SDS011;60354;47.798;12.472;2023-02-01T09:50:50;4.50;;;2.00;;
72379;SDS011;60354;47.798;12.472;2023-02-01T09:53:29;1.73;;;1.10;;
72379;SDS011;60354;47.798;12.472;2023-02-01T09:56:02;1.30;;;0.93;;
72379;SDS011;60354;47.798;12.472;2023-02-01T10:00:58;3.60;;;1.60;;
72379;SDS011;60354;47.798;12.472;2023-02-01T10:03:30;2.22;;;1.30;;
72379;SDS011;60354;47.798;12.472;2023-02-01T10:19:44;2.15;;;1.05;;
72379;SDS011;60354;47.798;12.472;2023-02-01T10:22:26;2.65;;;1.00;;
72379;SDS011;60354;47.798;12.472;2023-02-01T10:27:26;1.55;;;0.85;;
72379;SDS011;60354;47.798;12.472;2023-02-01T10:29:59;1.67;;;0.85;;
72379;SDS011;60354;47.798;12.472;2023-02-01T10:32:30;1.20;;;0.90;;
72379;SDS011;60354;47.798;12.472;2023-02-01T10:35:00;1.10;;;0.80;;
72379;SDS011;60354;47.798;12.472;2023-02-01T10:37:34;1.35;;;0.65;;
72379;SDS011;60354;47.798;12.472;2023-02-01T10:42:44;1.30;;;0.80;;
72379;SDS011;60354;47.798;12.472;2023-02-01T10:45:16;1.08;;;0.80;;
72379;SDS011;60354;47.798;12.472;2023-02-01T10:47:45;1.15;;;0.70;;
72379;SDS011;60354;47.798;12.472;2023-02-01T10:52:58;4.60;;;0.88;;
72379;SDS011;60354;47.798;12.472;2023-02-01T10:58:07;1.60;;;1.00;;
72379;SDS011;60354;47.798;12.472;2023-02-01T11:00:45;2.42;;;0.70;;
72379;SDS011;60354;47.798;12.472;2023-02-01T11:04:11;1.48;;;0.90;;
72379;SDS011;60354;47.798;12.472;2023-02-01T11:08:43;1.35;;;0.70;;
72379;SDS011;60354;47.798;12.472;2023-02-01T11:11:13;1.20;;;0.90;;
72379;SDS011;60354;47.798;12.472;2023-02-01T11:13:39;2.47;;;0.90;;
72379;SDS011;60354;47.798;12.472;2023-02-01T11:16:05;1.35;;;0.95;;
72379;SDS011;60354;47.798;12.472;2023-02-01T11:18:33;1.08;;;0.82;;
72379;SDS011;60354;47.798;12.472;2023-02-01T11:21:01;0.85;;;0.80;;
72379;SDS011;60354;47.798;12.472;2023-02-01T11:23:29;1.00;;;0.82;;
72379;SDS011;60354;47.798;12.472;2023-02-01T11:26:07;1.27;;;1.00;;
72379;SDS011;60354;47.798;12.472;2023-02-01T11:28:37;2.05;;;0.90;;
72379;SDS011;60354;47.798;12.472;2023-02-01T11:31:05;1.30;;;1.00;;
72379;SDS011;60354;47.798;12.472;2023-02-01T11:33:37;2.05;;;1.00;;
72379;SDS011;60354;47.798;12.472;2023-02-01T11:36:10;1.35;;;0.90;;
72379;SDS011;60354;47.798;12.472;2023-02-01T11:38:39;1.38;;;1.00;;
72379;SDS011;60354;47.798;12.472;2023-02-01T11:41:31;0.90;;;0.80;;
72379;SDS011;60354;47.798;12.472;2023-02-01T11:43:58;1.13;;;0.90;;
72379;SDS011;60354;47.798;12.472;2023-02-01T11:46:30;1.05;;;0.80;;
72379;SDS011;60354;47.798;12.472;2023-02-01T11:52:07;1.52;;;0.80;;
72379;SDS011;60354;47.798;12.472;2023-02-01T12:25:27;2.63;;;1.20;;
72379;SDS011;60354;47.798;12.472;2023-02-01T12:43:38;1.98;;;1.20;;
72379;SDS011;60354;47.798;12.472;2023-02-01T12:51:20;2.53;;;1.38;;
72379;SDS011;60354;47.798;12.472;2023-02-01T12:56:22;2.35;;;1.50;;
72379;SDS011;60354;47.798;12.472;2023-02-01T12:58:52;2.58;;;1.50;;
72379;SDS011;60354;47.798;12.472;2023-02-01T13:04:17;3.78;;;1.20;;
72379;SDS011;60354;47.798;12.472;2023-02-01T13:07:04;2.88;;;1.30;;
72379;SDS011;60354;47.798;12.472;2023-02-01T13:13:09;4.45;;;1.35;;
72379;SDS011;60354;47.798;12.472;2023-02-01T13:15:15;2.28;;;1.27;;
72379;SDS011;60354;47.798;12.472;2023-02-01T13:17:44;4.43;;;1.85;;
72379;SDS011;60354;47.798;12.472;2023-02-01T13:20:21;3.47;;;1.50;;
72379;SDS011;60354;47.798;12.472;2023-02-01T13:22:58;2.38;;;1.40;;
72379;SDS011;60354;47.798;12.472;2023-02-01T13:28:19;4.28;;;1.60;;
72379;SDS011;60354;47.798;12.472;2023-02-01T13:33:37;5.10;;;1.42;;
72379;SDS011;60354;47.798;12.472;2023-02-01T13:39:19;6.15;;;1.60;;
72379;SDS011;60354;47.798;12.472;2023-02-01T13:41:58;4.47;;;1.60;;
72379;SDS011;60354;47.798;12.472;2023-02-01T13:44:28;2.55;;;1.60;;
72379;SDS011;60354;47.798;12.472;2023-02-01T13:47:00;5.80;;;1.58;;
72379;SDS011;60354;47.798;12.472;2023-02-01T13:49:31;2.60;;;1.50;;
72379;SDS011;60354;47.798;12.472;2023-02-01T13:52:02;3.13;;;1.55;;
72379;SDS011;60354;47.798;12.472;2023-02-01T13:56:54;5.82;;;1.70;;
72379;SDS011;60354;47.798;12.472;2023-02-01T13:59:37;3.72;;;1.40;;
72379;SDS011;60354;47.798;12.472;2023-02-01T14:05:12;4.95;;;1.48;;
72379;SDS011;60354;47.798;12.472;2023-02-01T14:13:30;2.70;;;1.40;;
72379;SDS011;60354;47.798;12.472;2023-02-01T14:23:47;4.00;;;1.30;;
72379;SDS011;60354;47.798;12.472;2023-02-01T14:26:23;3.83;;;1.30;;
72379;SDS011;60354;47.798;12.472;2023-02-01T14:34:24;3.30;;;1.30;;
72379;SDS011;60354;47.798;12.472;2023-02-01T14:37:31;3.22;;;1.90;;
72379;SDS011;60354;47.798;12.472;2023-02-01T14:42:43;1.98;;;1.33;;
72379;SDS011;60354;47.798;12.472;2023-02-01T14:55:48;1.98;;;1.30;;
72379;SDS011;60354;47.798;12.472;2023-02-01T15:01:06;2.13;;;1.40;;
72379;SDS011;60354;47.798;12.472;2023-02-01T15:04:16;3.90;;;1.50;;
72379;SDS011;60354;47.798;12.472;2023-02-01T15:14:25;2.47;;;1.42;;
72379;SDS011;60354;47.798;12.472;2023-02-01T15:16:55;2.90;;;1.35;;
72379;SDS011;60354;47.798;12.472;2023-02-01T15:19:23;3.38;;;1.50;;
72379;SDS011;60354;47.798;12.472;2023-02-01T15:21:51;3.88;;;1.45;;
72379;SDS011;60354;47.798;12.472;2023-02-01T15:24:28;2.13;;;1.40;;
72379;SDS011;60354;47.798;12.472;2023-02-01T15:26:55;2.08;;;1.40;;
72379;SDS011;60354;47.798;12.472;2023-02-01T15:29:27;2.90;;;1.30;;
72379;SDS011;60354;47.798;12.472;2023-02-01T15:31:57;2.83;;;1.55;;
72379;SDS011;60354;47.798;12.472;2023-02-01T15:34:23;2.45;;;1.40;;
72379;SDS011;60354;47.798;12.472;2023-02-01T15:37:13;4.13;;;1.65;;
72379;SDS011;60354;47.798;12.472;2023-02-01T15:42:34;6.63;;;3.97;;
72379;SDS011;60354;47.798;12.472;2023-02-01T15:45:02;3.17;;;1.30;;
72379;SDS011;60354;47.798;12.472;2023-02-01T15:47:29;3.00;;;1.50;;
72379;SDS011;60354;47.798;12.472;2023-02-01T15:49:57;3.38;;;1.50;;
72379;SDS011;60354;47.798;12.472;2023-02-01T15:52:35;2.50;;;1.40;;
72379;SDS011;60354;47.798;12.472;2023-02-01T15:55:16;4.78;;;1.58;;
72379;SDS011;60354;47.798;12.472;2023-02-01T15:57:45;2.08;;;1.30;;
72379;SDS011;60354;47.798;12.472;2023-02-01T16:00:45;4.10;;;1.80;;
72379;SDS011;60354;47.798;12.472;2023-02-01T16:03:33;4.40;;;2.03;;
72379;SDS011;60354;47.798;12.472;2023-02-01T16:06:26;2.88;;;1.60;;
72379;SDS011;60354;47.798;12.472;2023-02-01T16:08:48;3.20;;;2.00;;
72379;SDS011;60354;47.798;12.472;2023-02-01T16:11:29;3.55;;;1.80;;
72379;SDS011;60354;47.798;12.472;2023-02-01T16:13:57;2.47;;;1.58;;
72379;SDS011;60354;47.798;12.472;2023-02-01T16:16:24;4.13;;;2.00;;
72379;SDS011;60354;47.798;12.472;2023-02-01T16:18:50;6.32;;;2.40;;
72379;SDS011;60354;47.798;12.472;2023-02-01T16:21:15;6.97;;;1.77;;
72379;SDS011;60354;47.798;12.472;2023-02-01T16:23:41;3.08;;;1.70;;
72379;SDS011;60354;47.798;12.472;2023-02-01T16:26:06;3.75;;;1.85;;
72379;SDS011;60354;47.798;12.472;2023-02-01T16:28:32;3.38;;;1.77;;
72379;SDS011;60354;47.798;12.472;2023-02-01T16:30:58;3.15;;;1.73;;
72379;SDS011;60354;47.798;12.472;2023-02-01T16:33:24;2.92;;;1.70;;
72379;SDS011;60354;47.798;12.472;2023-02-01T16:35:50;5.00;;;2.00;;
72379;SDS011;60354;47.798;12.472;2023-02-01T16:38:17;5.00;;;1.70;;
72379;SDS011;60354;47.798;12.472;2023-02-01T16:40:46;4.35;;;1.70;;
72379;SDS011;60354;47.798;12.472;2023-02-01T16:45:38;5.30;;;2.15;;
72379;SDS011;60354;47.798;12.472;2023-02-01T16:48:05;3.63;;;1.80;;
72379;SDS011;60354;47.798;12.472;2023-02-01T16:50:31;3.50;;;1.60;;
72379;SDS011;60354;47.798;12.472;2023-02-01T16:52:58;2.47;;;1.60;;
72379;SDS011;60354;47.798;12.472;2023-02-01T16:55:23;4.07;;;1.90;;
72379;SDS011;60354;47.798;12.472;2023-02-01T16:57:50;3.40;;;1.60;;
72379;SDS011;60354;47.798;12.472;2023-02-01T17:00:15;3.53;;;1.75;;
72379;SDS011;60354;47.798;12.472;2023-02-01T17:02:41;4.88;;;2.00;;
72379;SDS011;60354;47.798;12.472;2023-02-01T17:05:07;5.68;;;1.88;;
72379;SDS011;60354;47.798;12.472;2023-02-01T17:07:34;5.82;;;1.88;;
72379;SDS011;60354;47.798;12.472;2023-02-01T17:10:01;3.58;;;1.83;;
72379;SDS011;60354;47.798;12.472;2023-02-01T17:12:28;3.50;;;1.70;;
72379;SDS011;60354;47.798;12.472;2023-02-01T17:14:55;3.47;;;2.17;;
72379;SDS011;60354;47.798;12.472;2023-02-01T17:17:23;3.25;;;1.80;;
72379;SDS011;60354;47.798;12.472;2023-02-01T17:19:53;2.88;;;1.45;;
72379;SDS011;60354;47.798;12.472;2023-02-01T17:22:19;3.20;;;1.60;;
72379;SDS011;60354;47.798;12.472;2023-02-01T17:24:45;4.85;;;2.00;;
72379;SDS011;60354;47.798;12.472;2023-02-01T17:27:11;4.97;;;1.70;;
72379;SDS011;60354;47.798;12.472;2023-02-01T17:29:37;6.43;;;2.03;;
72379;SDS011;60354;47.798;12.472;2023-02-01T17:32:02;5.93;;;1.90;;
72379;SDS011;60354;47.798;12.472;2023-02-01T17:34:29;4.50;;;1.70;;
72379;SDS011;60354;47.798;12.472;2023-02-01T17:36:55;4.20;;;1.83;;
72379;SDS011;60354;47.798;12.472;2023-02-01T17:39:21;6.55;;;1.83;;
72379;SDS011;60354;47.798;12.472;2023-02-01T17:42:05;5.78;;;1.73;;
72379;SDS011;60354;47.798;12.472;2023-02-01T17:44:34;4.22;;;1.70;;
72379;SDS011;60354;47.798;12.472;2023-02-01T17:47:00;6.80;;;2.63;;
72379;SDS011;60354;47.798;12.472;2023-02-01T17:49:26;6.90;;;1.92;;
72379;SDS011;60354;47.798;12.472;2023-02-01T17:51:55;6.95;;;1.80;;
72379;SDS011;60354;47.798;12.472;2023-02-01T17:54:21;3.28;;;1.52;;
72379;SDS011;60354;47.798;12.472;2023-02-01T17:56:47;6.20;;;2.00;;